createdAt,value
2022-11-14T00:03:05.373Z,4.65
2022-11-14T00:06:25.610Z,4.77
2022-11-14T00:09:45.961Z,4.76
2022-11-14T00:13:07.826Z,4.86
2022-11-14T00:16:28.163Z,4.91
2022-11-14T00:19:48.457Z,4.90
2022-11-14T00:23:08.902Z,5.01
2022-11-14T00:26:29.037Z,5.02
2022-11-14T00:29:50.897Z,5.08
2022-11-14T00:33:14.710Z,4.98
2022-11-14T00:36:37.673Z,5.07
2022-11-14T00:39:58.078Z,5.04
2022-11-14T00:43:18.720Z,5.06
2022-11-14T00:46:40.431Z,5.14
2022-11-14T00:50:00.538Z,5.08
2022-11-14T00:53:21.085Z,5.05
2022-11-14T00:56:41.446Z,5.12
2022-11-14T01:00:01.844Z,5.04
2022-11-14T01:03:23.533Z,5.02
2022-11-14T01:06:43.830Z,4.99
2022-11-14T01:10:05.307Z,4.95
2022-11-14T01:13:26.864Z,4.85
2022-11-14T01:16:47.295Z,4.71
2022-11-14T01:20:09.550Z,4.57
2022-11-14T01:23:29.749Z,4.44
2022-11-14T01:26:50.185Z,4.29
2022-11-14T01:30:11.810Z,3.94
2022-11-14T01:33:31.806Z,4.14
2022-11-14T01:36:53.441Z,3.96
2022-11-14T01:40:13.607Z,3.88
2022-11-14T01:43:34.964Z,3.81
2022-11-14T01:46:56.705Z,3.81
2022-11-14T01:50:16.979Z,3.69
2022-11-14T01:53:38.728Z,3.73
2022-11-14T01:57:02.025Z,3.69
2022-11-14T02:00:22.144Z,3.80
2022-11-14T02:03:45.848Z,3.72
2022-11-14T02:07:07.840Z,3.85
2022-11-14T02:10:29.691Z,4.00
2022-11-14T02:13:50.514Z,4.04
2022-11-14T02:20:53.234Z,4.10
2022-11-14T02:24:14.106Z,4.11
2022-11-14T02:27:36.242Z,4.25
2022-11-14T02:30:56.459Z,4.39
2022-11-14T02:34:19.888Z,4.48
2022-11-14T02:37:42.066Z,4.39
2022-11-14T02:41:02.764Z,4.48
2022-11-14T02:44:23.082Z,4.55
2022-11-14T02:47:43.545Z,4.60
2022-11-14T02:51:03.800Z,4.62
2022-11-14T02:54:25.420Z,4.67
2022-11-14T02:57:45.800Z,4.60
2022-11-14T03:01:20.264Z,4.72
2022-11-14T03:04:41.312Z,4.60
2022-11-14T03:08:01.595Z,4.77
2022-11-14T03:11:23.444Z,4.81
2022-11-14T03:14:43.807Z,4.80
2022-11-14T03:18:04.145Z,4.89
2022-11-14T03:21:24.571Z,4.95
2022-11-14T03:24:44.644Z,5.02
2022-11-14T03:28:06.324Z,5.03
2022-11-14T03:31:26.583Z,5.03
2022-11-14T03:34:46.592Z,5.11
2022-11-14T03:38:07.000Z,5.08
2022-11-14T03:41:27.438Z,5.11
2022-11-14T03:44:48.904Z,5.24
2022-11-14T03:48:09.342Z,5.28
2022-11-14T03:51:29.798Z,5.31
2022-11-14T03:54:50.797Z,5.36
2022-11-14T03:58:11.049Z,5.34
2022-11-14T04:01:33.102Z,5.34
2022-11-14T04:04:53.361Z,5.38
2022-11-14T04:08:13.728Z,5.47
2022-11-14T04:11:34.072Z,5.49
2022-11-14T04:14:54.186Z,5.53
2022-11-14T04:18:15.594Z,5.56
2022-11-14T04:21:36.180Z,5.60
2022-11-14T04:24:56.283Z,5.68
2022-11-14T04:28:17.027Z,5.66
2022-11-14T04:31:37.012Z,5.70
2022-11-14T04:34:59.473Z,5.73
2022-11-14T04:38:19.973Z,5.74
2022-11-14T04:41:40.596Z,5.77
2022-11-14T04:45:00.840Z,5.79
2022-11-14T04:48:21.150Z,5.79
2022-11-14T04:51:42.880Z,5.83
2022-11-14T04:55:03.536Z,5.88
2022-11-14T04:58:23.968Z,5.80
2022-11-14T05:01:44.354Z,5.73
2022-11-14T05:05:05.428Z,5.62
2022-11-14T05:08:27.654Z,5.74
2022-11-14T05:11:48.177Z,5.63
2022-11-14T05:15:09.381Z,5.71
2022-11-14T05:18:29.763Z,5.70
2022-11-14T05:21:50.617Z,5.63
2022-11-14T05:25:12.033Z,5.68
2022-11-14T05:28:32.794Z,5.76
2022-11-14T05:31:53.596Z,5.90
2022-11-14T05:35:14.066Z,5.88
2022-11-14T05:38:34.612Z,5.92
2022-11-14T05:41:56.307Z,5.95
2022-11-14T05:45:16.479Z,5.96
2022-11-14T05:48:37.705Z,5.91
2022-11-14T05:51:58.128Z,5.98
2022-11-14T05:55:24.239Z,5.97
2022-11-14T05:58:46.742Z,5.95
2022-11-14T06:02:07.126Z,6.04
2022-11-14T06:05:27.580Z,6.01
2022-11-14T06:08:48.427Z,6.05
2022-11-14T06:12:08.847Z,6.00
2022-11-14T06:15:30.412Z,5.98
2022-11-14T06:18:52.780Z,5.89
2022-11-14T06:22:12.978Z,5.83
2022-11-14T06:25:33.476Z,5.78
2022-11-14T06:28:53.923Z,5.65
2022-11-14T06:32:15.701Z,5.56
2022-11-14T06:35:37.018Z,5.64
2022-11-14T06:38:57.038Z,5.59
2022-11-14T06:42:17.643Z,5.57
2022-11-14T06:45:37.793Z,5.62
2022-11-14T06:48:59.716Z,5.59
2022-11-14T06:52:20.319Z,5.51
2022-11-14T06:55:40.678Z,5.55
2022-11-14T06:59:00.845Z,5.59
2022-11-14T07:02:22.133Z,5.52
2022-11-14T07:05:43.995Z,5.51
2022-11-14T07:09:04.324Z,5.49
2022-11-14T07:12:24.796Z,5.45
2022-11-14T07:15:50.953Z,5.38
2022-11-14T07:19:11.431Z,5.47
2022-11-14T07:22:33.148Z,5.51
2022-11-14T07:25:53.643Z,5.47
2022-11-14T07:29:13.984Z,5.48
2022-11-14T07:32:34.724Z,5.53
2022-11-14T07:35:54.735Z,5.60
2022-11-14T07:39:16.582Z,5.64
2022-11-14T07:42:37.141Z,5.80
2022-11-14T07:46:00.048Z,5.91
2022-11-14T07:49:20.471Z,5.94
2022-11-14T07:52:40.792Z,6.04
2022-11-14T07:56:06.166Z,6.10
2022-11-14T07:59:26.350Z,6.13
2022-11-14T08:02:47.451Z,6.12
2022-11-14T08:06:10.195Z,6.33
2022-11-14T08:09:30.408Z,6.39
2022-11-14T08:13:11.043Z,6.40
2022-11-14T08:16:39.480Z,6.41
2022-11-14T08:19:59.774Z,6.55
2022-11-14T08:23:20.100Z,6.41
2022-11-14T08:26:40.548Z,6.49
2022-11-14T08:30:02.478Z,6.58
2022-11-14T08:33:22.941Z,6.59
2022-11-14T08:36:43.261Z,6.63
2022-11-14T08:40:04.388Z,6.68
2022-11-14T08:43:24.588Z,6.80
2022-11-14T08:46:46.135Z,6.90
2022-11-14T08:50:07.170Z,7.04
2022-11-14T08:53:27.309Z,7.10
2022-11-14T08:56:47.830Z,7.38
2022-11-14T09:00:09.357Z,7.40
2022-11-14T09:03:31.384Z,7.49
2022-11-14T09:06:52.018Z,7.34
2022-11-14T09:10:12.300Z,7.36
2022-11-14T09:13:33.412Z,7.53
2022-11-14T09:16:53.569Z,7.78
2022-11-14T09:20:15.122Z,7.99
2022-11-14T09:23:35.829Z,8.04
2022-11-14T09:26:57.194Z,8.11
2022-11-14T09:30:17.722Z,8.17
2022-11-14T09:33:38.060Z,8.13
2022-11-14T09:36:59.723Z,8.16
2022-11-14T09:40:20.209Z,8.20
2022-11-14T09:43:59.041Z,8.17
2022-11-14T09:47:23.339Z,8.34
2022-11-14T09:50:48.588Z,8.34
2022-11-14T09:54:20.764Z,8.43
2022-11-14T09:57:44.092Z,8.49
2022-11-14T10:01:09.399Z,8.44
2022-11-14T10:04:54.276Z,8.26
2022-11-14T10:08:35.448Z,8.21
2022-11-14T10:12:04.297Z,8.35
2022-11-14T10:15:34.073Z,8.35
2022-11-14T10:19:10.560Z,8.27
2022-11-14T10:22:48.719Z,8.25
2022-11-14T10:26:15.598Z,8.22
2022-11-14T10:30:01.371Z,8.02
2022-11-14T10:33:34.793Z,7.92
2022-11-14T10:37:03.278Z,7.93
2022-11-14T10:40:25.748Z,8.03
2022-11-14T10:43:47.783Z,8.30
2022-11-14T10:47:14.614Z,8.36
2022-11-14T10:50:42.844Z,8.48
2022-11-14T10:54:10.676Z,8.37
2022-11-14T10:57:31.522Z,8.53
2022-11-14T11:00:52.134Z,8.74
2022-11-14T11:04:24.608Z,8.89
2022-11-14T11:08:28.190Z,8.99
2022-11-14T11:11:53.380Z,9.07
2022-11-14T11:15:17.827Z,9.32
2022-11-14T11:18:38.190Z,9.50
2022-11-14T11:21:59.990Z,9.78
2022-11-14T11:25:25.618Z,10.06
2022-11-14T11:29:02.115Z,9.99
2022-11-14T11:32:28.155Z,10.08
2022-11-14T11:35:50.465Z,10.17
2022-11-14T11:39:22.707Z,10.14
2022-11-14T11:46:38.726Z,10.02
2022-11-14T11:50:02.139Z,10.27
2022-11-14T11:53:27.631Z,10.36
2022-11-14T11:56:58.395Z,10.22
2022-11-14T12:00:22.976Z,10.09
2022-11-14T12:03:47.513Z,10.11
2022-11-14T12:07:12.297Z,10.04
2022-11-14T12:10:37.564Z,9.88
2022-11-14T12:14:47.281Z,10.09
2022-11-14T12:18:43.778Z,10.58
2022-11-14T12:22:20.294Z,10.81
2022-11-14T12:25:53.983Z,10.72
2022-11-14T12:29:35.427Z,10.84
2022-11-14T12:33:03.795Z,10.68
2022-11-14T12:36:28.739Z,10.55
2022-11-14T12:39:57.431Z,10.70
2022-11-14T12:43:36.030Z,10.75
2022-11-14T12:47:16.009Z,10.47
2022-11-14T12:50:43.421Z,10.35
2022-11-14T12:54:04.168Z,10.36
2022-11-14T12:57:47.649Z,10.54
2022-11-14T13:01:23.597Z,10.67
2022-11-14T13:05:00.837Z,10.84
2022-11-14T13:08:47.168Z,10.85
2022-11-14T13:12:50.304Z,10.87
2022-11-14T13:16:23.891Z,10.99
2022-11-14T13:20:07.482Z,11.06
2022-11-14T13:23:56.714Z,11.28
2022-11-14T13:27:52.151Z,11.28
2022-11-14T13:31:19.425Z,11.26
2022-11-14T13:34:46.013Z,11.12
2022-11-14T13:38:24.130Z,10.83
2022-11-14T13:42:08.279Z,11.18
2022-11-14T13:45:48.615Z,11.41
2022-11-14T13:49:28.228Z,11.46
2022-11-14T13:52:49.335Z,11.48
2022-11-14T13:56:24.743Z,11.24
2022-11-14T13:59:59.427Z,11.25
2022-11-14T14:03:36.528Z,11.38
2022-11-14T14:07:07.905Z,11.46
2022-11-14T14:10:40.489Z,11.58
2022-11-14T14:14:14.826Z,11.46
2022-11-14T14:17:47.165Z,11.18
2022-11-14T14:21:19.709Z,10.96
2022-11-14T14:24:52.890Z,10.90
2022-11-14T14:28:22.642Z,10.82
2022-11-14T14:31:44.493Z,10.68
2022-11-14T14:35:21.685Z,10.60
2022-11-14T14:38:42.311Z,10.55
2022-11-14T14:42:11.329Z,10.37
2022-11-14T14:45:44.379Z,10.31
2022-11-14T14:49:05.963Z,10.21
2022-11-14T14:52:29.656Z,10.21
2022-11-14T14:55:55.338Z,9.96
2022-11-14T14:59:17.739Z,9.91
2022-11-14T15:02:38.448Z,9.82
2022-11-14T15:06:02.017Z,9.77
2022-11-14T15:09:24.193Z,9.80
2022-11-14T15:12:44.963Z,9.72
2022-11-14T15:16:06.599Z,9.73
2022-11-14T15:19:32.510Z,9.69
2022-11-14T15:23:05.476Z,9.71
2022-11-14T15:26:26.050Z,9.72
2022-11-14T15:29:47.775Z,9.72
2022-11-14T15:33:27.344Z,9.78
2022-11-14T15:37:30.524Z,9.75
2022-11-14T15:41:15.449Z,9.76
2022-11-14T15:44:35.610Z,9.73
2022-11-14T15:48:00.382Z,9.78
2022-11-14T15:51:40.725Z,9.77
2022-11-14T15:55:01.792Z,9.86
2022-11-14T15:58:30.396Z,9.92
2022-11-14T16:01:55.021Z,10.17
2022-11-14T16:05:16.693Z,10.41
2022-11-14T16:08:36.986Z,10.41
2022-11-14T16:11:57.288Z,10.66
2022-11-14T16:15:20.927Z,10.71
2022-11-14T16:18:41.310Z,10.70
2022-11-14T16:22:02.909Z,10.83
2022-11-14T16:25:25.515Z,11.04
2022-11-14T16:28:45.705Z,11.01
2022-11-14T16:32:10.070Z,10.97
2022-11-14T16:35:30.369Z,11.08
2022-11-14T16:38:52.473Z,11.01
2022-11-14T16:42:12.773Z,11.10
2022-11-14T16:45:33.385Z,11.10
2022-11-14T16:48:55.725Z,11.04
2022-11-14T16:52:17.062Z,11.01
2022-11-14T16:55:37.344Z,11.02
2022-11-14T16:58:57.761Z,11.07
2022-11-14T17:02:18.866Z,11.08
2022-11-14T17:05:44.279Z,11.18
2022-11-14T17:09:04.592Z,11.31
2022-11-14T17:12:24.862Z,11.38
2022-11-14T17:15:45.263Z,11.45
2022-11-14T17:19:05.869Z,11.64
2022-11-14T17:22:28.219Z,11.64
2022-11-14T17:25:48.343Z,11.67
2022-11-14T17:29:09.069Z,11.59
2022-11-14T17:32:29.655Z,11.64
2022-11-14T17:35:49.933Z,11.64
2022-11-14T17:39:11.608Z,11.60
2022-11-14T17:42:31.912Z,11.55
2022-11-14T17:45:56.057Z,11.51
2022-11-14T17:49:16.421Z,11.57
2022-11-14T17:52:37.252Z,11.65
2022-11-14T17:55:58.574Z,11.81
2022-11-14T17:59:20.411Z,11.75
2022-11-14T18:02:40.897Z,11.77
2022-11-14T18:06:08.439Z,11.73
2022-11-14T18:09:29.503Z,11.74
2022-11-14T18:12:51.065Z,11.87
2022-11-14T18:16:13.796Z,11.86
2022-11-14T18:19:34.090Z,11.83
2022-11-14T18:22:54.410Z,11.91
2022-11-14T18:26:18.650Z,11.95
2022-11-14T18:29:40.248Z,11.90
2022-11-14T18:33:00.650Z,11.95
2022-11-14T18:36:20.795Z,12.00
2022-11-14T18:39:41.195Z,12.06
2022-11-14T18:43:01.648Z,12.18
2022-11-14T18:46:24.977Z,12.16
2022-11-14T18:49:45.223Z,12.15
2022-11-14T18:53:05.688Z,11.97
2022-11-14T18:56:26.368Z,12.13
2022-11-14T18:59:48.116Z,12.27
2022-11-14T19:03:09.454Z,12.25
2022-11-14T19:06:31.101Z,12.35
2022-11-14T19:09:51.310Z,12.17
2022-11-14T19:13:11.907Z,12.27
2022-11-14T19:16:33.201Z,12.22
2022-11-14T19:19:54.595Z,12.15
2022-11-14T19:23:15.112Z,12.14
2022-11-14T19:26:35.598Z,11.96
2022-11-14T19:29:56.064Z,12.01
2022-11-14T19:33:16.572Z,11.96
2022-11-14T19:36:59.001Z,11.94
2022-11-14T19:40:19.034Z,11.97
2022-11-14T19:43:39.858Z,11.98
2022-11-14T19:47:02.247Z,11.91
2022-11-14T19:50:24.587Z,11.97
2022-11-14T19:53:46.530Z,11.91
2022-11-14T19:57:06.879Z,11.97
2022-11-14T20:00:29.272Z,11.87
2022-11-14T20:03:54.948Z,11.92
2022-11-14T20:07:15.292Z,11.74
2022-11-14T20:10:47.665Z,11.66
2022-11-14T20:14:10.641Z,11.94
2022-11-14T20:17:32.314Z,11.78
2022-11-14T20:20:52.751Z,11.79
2022-11-14T20:24:17.500Z,11.92
2022-11-14T20:27:39.187Z,11.91
2022-11-14T20:31:03.308Z,11.87
2022-11-14T20:34:23.709Z,11.77
2022-11-14T20:37:43.969Z,11.78
2022-11-14T20:41:04.730Z,11.81
2022-11-14T20:44:26.324Z,11.73
2022-11-14T20:47:46.623Z,11.79
2022-11-14T20:51:08.837Z,11.81
2022-11-14T20:54:29.270Z,11.90
2022-11-14T20:57:49.429Z,12.01
2022-11-14T21:01:11.461Z,12.02
2022-11-14T21:04:31.721Z,12.16
2022-11-14T21:07:52.169Z,12.31
2022-11-14T21:11:15.833Z,12.47
2022-11-14T21:14:36.221Z,12.65
2022-11-14T21:17:58.025Z,12.52
2022-11-14T21:21:20.705Z,12.53
2022-11-14T21:24:41.101Z,12.52
2022-11-14T21:28:01.343Z,12.47
2022-11-14T21:31:23.558Z,12.35
2022-11-14T21:34:44.994Z,12.37
2022-11-14T21:38:05.326Z,12.35
2022-11-14T21:41:27.972Z,12.24
2022-11-14T21:44:48.550Z,12.19
2022-11-14T21:48:08.957Z,12.17
2022-11-14T21:51:30.782Z,12.24
2022-11-14T21:54:51.033Z,12.30
2022-11-14T21:58:12.752Z,12.30
2022-11-14T22:01:53.460Z,12.35
2022-11-14T22:05:13.783Z,12.44
2022-11-14T22:08:35.766Z,12.29
2022-11-14T22:11:56.752Z,12.46
2022-11-14T22:15:17.009Z,12.67
2022-11-14T22:18:37.593Z,12.56
2022-11-14T22:21:57.766Z,12.64
2022-11-14T22:25:19.200Z,12.57
2022-11-14T22:28:40.364Z,12.71
2022-11-14T22:32:00.762Z,12.75
2022-11-14T22:35:21.143Z,12.74
2022-11-14T22:38:42.442Z,12.80
2022-11-14T22:42:04.447Z,12.86
2022-11-14T22:45:24.619Z,12.78
2022-11-14T22:48:46.214Z,12.77
2022-11-14T22:52:06.192Z,12.98
2022-11-14T22:55:26.253Z,12.80
2022-11-14T22:58:48.201Z,12.93
2022-11-14T23:02:08.306Z,13.03
2022-11-14T23:05:28.916Z,13.00
2022-11-14T23:08:49.317Z,12.92
2022-11-14T23:12:09.332Z,12.80
2022-11-14T23:15:31.028Z,12.75
2022-11-14T23:18:53.082Z,12.95
2022-11-14T23:22:13.635Z,12.90
2022-11-14T23:25:35.428Z,12.88
2022-11-14T23:28:56.193Z,13.08
2022-11-14T23:32:17.677Z,13.17
2022-11-14T23:35:37.870Z,12.97
2022-11-14T23:38:58.219Z,12.97
2022-11-14T23:42:18.605Z,12.90
2022-11-14T23:45:42.442Z,12.95
2022-11-14T23:49:03.931Z,12.76
2022-11-14T23:52:24.436Z,13.26
2022-11-14T23:55:51.561Z,13.11
2022-11-14T23:59:11.827Z,13.05
